createdAt,value
2022-11-08T00:00:47.993Z,9.25
2022-11-08T00:03:20.376Z,9.27
2022-11-08T00:06:10.678Z,9.32
2022-11-08T00:09:00.890Z,9.33
2022-11-08T00:11:50.940Z,9.31
2022-11-08T00:14:23.136Z,9.31
2022-11-08T00:16:55.302Z,9.30
2022-11-08T00:19:28.245Z,9.27
2022-11-08T00:22:01.559Z,9.25
2022-11-08T00:24:34.930Z,9.23
2022-11-08T00:27:09.329Z,9.23
2022-11-08T00:29:41.904Z,9.28
2022-11-08T00:32:16.280Z,9.29
2022-11-08T00:34:49.565Z,9.30
2022-11-08T00:37:23.144Z,9.30
2022-11-08T00:39:55.366Z,9.32
2022-11-08T00:42:27.558Z,9.34
2022-11-08T00:44:59.777Z,9.31
2022-11-08T00:47:32.105Z,9.29
2022-11-08T00:50:04.367Z,9.28
2022-11-08T00:52:36.670Z,9.30
2022-11-08T00:55:11.700Z,9.35
2022-11-08T00:58:00.244Z,9.38
2022-11-08T01:00:33.061Z,9.41
2022-11-08T01:03:20.401Z,9.44
2022-11-08T01:05:54.347Z,9.45
2022-11-08T01:08:26.645Z,9.42
2022-11-08T01:11:02.425Z,9.39
2022-11-08T01:13:34.893Z,9.37
2022-11-08T01:16:12.277Z,9.38
2022-11-08T01:18:45.788Z,9.44
2022-11-08T01:21:18.951Z,9.45
2022-11-08T01:23:51.705Z,9.46
2022-11-08T01:26:28.803Z,9.47
2022-11-08T01:29:01.319Z,9.49
2022-11-08T01:31:34.330Z,9.48
2022-11-08T01:34:06.627Z,9.45
2022-11-08T01:36:39.665Z,9.45
2022-11-08T01:39:11.913Z,9.45
2022-11-08T01:41:44.359Z,9.44
2022-11-08T01:44:20.549Z,9.40
2022-11-08T01:46:52.872Z,9.45
2022-11-08T01:49:36.357Z,9.49
2022-11-08T01:52:28.414Z,9.51
2022-11-08T01:55:09.853Z,9.50
2022-11-08T01:57:49.060Z,9.52
2022-11-08T02:00:21.814Z,9.50
2022-11-08T02:02:59.362Z,9.44
2022-11-08T02:05:32.730Z,9.42
2022-11-08T02:08:08.015Z,9.40
2022-11-08T02:10:42.112Z,9.38
2022-11-08T02:13:18.371Z,9.42
2022-11-08T02:15:50.803Z,9.39
2022-11-08T02:18:28.214Z,9.40
2022-11-08T02:21:09.242Z,9.40
2022-11-08T02:23:48.191Z,9.36
2022-11-08T02:26:23.738Z,9.31
2022-11-08T02:28:56.471Z,9.29
2022-11-08T02:31:28.613Z,9.27
2022-11-08T02:34:01.293Z,9.25
2022-11-08T02:36:33.413Z,9.28
2022-11-08T02:39:05.603Z,9.27
2022-11-08T02:41:37.782Z,9.26
2022-11-08T02:44:10.068Z,9.25
2022-11-08T02:46:42.210Z,9.27
2022-11-08T02:49:14.533Z,9.29
2022-11-08T02:51:46.730Z,9.26
2022-11-08T02:54:18.896Z,9.23
2022-11-08T02:56:51.045Z,9.21
2022-11-08T02:59:23.220Z,9.25
2022-11-08T03:01:55.526Z,9.33
2022-11-08T03:04:27.800Z,9.35
2022-11-08T03:07:00.036Z,9.37
2022-11-08T03:09:32.338Z,9.37
2022-11-08T03:12:04.720Z,9.38
2022-11-08T03:14:36.904Z,9.35
2022-11-08T03:17:09.131Z,9.32
2022-11-08T03:19:41.503Z,9.30
2022-11-08T03:22:13.716Z,9.29
2022-11-08T03:24:45.967Z,9.27
2022-11-08T03:27:19.411Z,9.30
2022-11-08T03:29:51.937Z,9.33
2022-11-08T03:32:24.091Z,9.30
2022-11-08T03:34:56.248Z,9.31
2022-11-08T03:37:28.465Z,9.30
2022-11-08T03:40:00.617Z,9.28
2022-11-08T03:42:32.831Z,9.26
2022-11-08T03:45:05.299Z,9.24
2022-11-08T03:47:41.826Z,9.24
2022-11-08T03:50:15.813Z,9.24
2022-11-08T03:52:50.102Z,9.31
2022-11-08T03:55:24.729Z,9.32
2022-11-08T03:57:57.626Z,9.32
2022-11-08T04:00:31.494Z,9.34
2022-11-08T04:03:07.327Z,9.36
2022-11-08T04:05:39.571Z,9.37
2022-11-08T04:08:12.049Z,9.34
2022-11-08T04:10:44.342Z,9.31
2022-11-08T04:13:34.330Z,9.33
2022-11-08T04:16:07.444Z,9.35
2022-11-08T04:18:57.354Z,9.39
2022-11-08T04:21:29.802Z,9.40
2022-11-08T04:24:02.101Z,9.39
2022-11-08T04:26:34.294Z,9.41
2022-11-08T04:29:06.516Z,9.43
2022-11-08T04:31:39.197Z,9.41
2022-11-08T04:34:11.520Z,9.38
2022-11-08T04:36:43.733Z,9.35
2022-11-08T04:39:15.904Z,9.33
2022-11-08T04:41:48.098Z,9.33
2022-11-08T04:44:20.342Z,9.38
2022-11-08T04:46:52.356Z,9.40
2022-11-08T04:49:24.524Z,9.40
2022-11-08T04:51:56.720Z,9.42
2022-11-08T04:54:28.886Z,9.43
2022-11-08T04:57:01.105Z,9.41
2022-11-08T04:59:33.375Z,9.39
2022-11-08T05:02:05.676Z,9.38
2022-11-08T05:04:37.993Z,9.36
2022-11-08T05:07:10.139Z,9.35
2022-11-08T05:09:42.387Z,9.39
2022-11-08T05:12:14.600Z,9.41
2022-11-08T05:14:46.795Z,9.43
2022-11-08T05:17:19.219Z,9.45
2022-11-08T05:20:09.511Z,9.45
2022-11-08T05:22:59.676Z,9.44
2022-11-08T05:25:32.177Z,9.41
2022-11-08T05:28:04.594Z,9.42
2022-11-08T05:30:36.947Z,9.42
2022-11-08T05:33:09.554Z,9.44
2022-11-08T05:35:42.075Z,9.46
2022-11-08T05:38:14.403Z,9.45
2022-11-08T05:40:46.749Z,9.46
2022-11-08T05:43:19.259Z,9.45
2022-11-08T05:45:51.905Z,9.46
2022-11-08T05:48:24.176Z,9.46
2022-11-08T05:50:56.833Z,9.42
2022-11-08T05:53:30.048Z,9.37
2022-11-08T05:56:03.601Z,9.34
2022-11-08T05:58:37.475Z,9.31
2022-11-08T06:01:12.441Z,9.32
2022-11-08T06:03:43.484Z,9.35
2022-11-08T06:06:17.673Z,9.33
2022-11-08T06:08:51.571Z,9.34
2022-11-08T06:11:42.465Z,9.36
2022-11-08T06:14:14.683Z,9.39
2022-11-08T06:16:46.911Z,9.41
2022-11-08T06:19:19.071Z,9.43
2022-11-08T06:21:51.291Z,9.39
2022-11-08T06:24:23.820Z,9.38
2022-11-08T06:26:55.991Z,9.34
2022-11-08T06:29:28.282Z,9.34
2022-11-08T06:32:00.477Z,9.40
2022-11-08T06:34:32.668Z,9.41
2022-11-08T06:37:05.569Z,9.43
2022-11-08T06:39:37.851Z,9.45
2022-11-08T06:42:10.328Z,9.48
2022-11-08T06:44:42.520Z,9.48
2022-11-08T06:47:14.944Z,9.47
2022-11-08T06:49:47.139Z,9.45
2022-11-08T06:52:19.385Z,9.44
2022-11-08T06:54:52.273Z,9.45
2022-11-08T06:57:24.462Z,9.49
2022-11-08T06:59:56.733Z,9.50
2022-11-08T07:02:29.107Z,9.52
2022-11-08T07:05:01.492Z,9.53
2022-11-08T07:07:33.705Z,9.55
2022-11-08T07:10:06.811Z,9.56
2022-11-08T07:12:39.443Z,9.56
2022-11-08T07:15:12.525Z,9.58
2022-11-08T07:17:44.807Z,9.60
2022-11-08T07:20:17.256Z,9.60
2022-11-08T07:22:49.498Z,9.66
2022-11-08T07:25:21.948Z,9.65
2022-11-08T07:27:57.955Z,9.64
2022-11-08T07:30:30.998Z,9.67
2022-11-08T07:33:03.548Z,9.71
2022-11-08T07:35:35.893Z,9.73
2022-11-08T07:38:08.363Z,9.73
2022-11-08T07:40:40.589Z,9.73
2022-11-08T07:43:13.347Z,9.73
2022-11-08T07:45:45.703Z,9.75
2022-11-08T07:48:17.900Z,9.82
2022-11-08T07:50:50.086Z,9.85
2022-11-08T07:53:22.499Z,9.88
2022-11-08T07:55:55.408Z,9.91
2022-11-08T07:58:28.013Z,9.95
2022-11-08T08:01:04.500Z,9.96
2022-11-08T08:03:36.687Z,9.94
2022-11-08T08:06:09.159Z,9.93
2022-11-08T08:08:41.939Z,9.91
2022-11-08T08:11:14.600Z,9.95
2022-11-08T08:13:46.763Z,10.03
2022-11-08T08:16:19.136Z,10.07
2022-11-08T08:18:56.359Z,10.12
2022-11-08T08:21:29.107Z,10.16
2022-11-08T08:24:01.245Z,10.20
2022-11-08T08:26:33.541Z,10.20
2022-11-08T08:29:05.739Z,10.22
2022-11-08T08:31:37.956Z,10.23
2022-11-08T08:34:10.065Z,10.22
2022-11-08T08:36:42.522Z,10.33
2022-11-08T08:39:14.920Z,10.49
2022-11-08T08:41:47.141Z,10.67
2022-11-08T08:44:19.410Z,10.86
2022-11-08T08:46:51.606Z,11.06
2022-11-08T08:49:23.773Z,11.24
2022-11-08T08:51:56.044Z,11.30
2022-11-08T08:54:29.587Z,11.31
2022-11-08T08:57:01.915Z,11.30
2022-11-08T09:02:26.196Z,11.26
2022-11-08T09:04:59.235Z,11.25
2022-11-08T09:07:31.535Z,11.23
2022-11-08T09:10:03.926Z,11.22
2022-11-08T09:12:37.196Z,11.26
2022-11-08T09:15:11.185Z,11.35
2022-11-08T09:17:43.760Z,11.44
2022-11-08T09:20:17.262Z,11.55
2022-11-08T09:22:49.684Z,11.66
2022-11-08T09:25:22.085Z,11.81
2022-11-08T09:27:56.787Z,11.91
2022-11-08T09:30:27.674Z,12.04
2022-11-08T09:33:01.729Z,12.16
2022-11-08T09:35:33.547Z,12.30
2022-11-08T09:38:05.764Z,12.36
2022-11-08T09:40:41.902Z,12.41
2022-11-08T09:43:40.249Z,12.44
2022-11-08T09:46:18.756Z,12.49
2022-11-08T09:48:52.376Z,12.53
2022-11-08T09:51:26.318Z,12.63
2022-11-08T09:54:01.192Z,12.75
2022-11-08T09:56:36.645Z,12.79
2022-11-08T09:59:21.096Z,12.81
2022-11-08T10:01:53.355Z,12.82
2022-11-08T10:04:27.789Z,12.82
2022-11-08T10:07:14.569Z,12.87
2022-11-08T10:10:00.802Z,12.92
2022-11-08T10:12:44.809Z,12.98
2022-11-08T10:15:26.404Z,13.06
2022-11-08T10:18:31.910Z,13.15
2022-11-08T10:21:12.238Z,13.25
2022-11-08T10:23:47.434Z,13.32
2022-11-08T10:26:26.707Z,13.34
2022-11-08T10:29:01.171Z,13.39
2022-11-08T10:31:36.632Z,13.43
2022-11-08T10:34:18.194Z,13.49
2022-11-08T10:36:52.691Z,13.57
2022-11-08T10:39:29.238Z,13.65
2022-11-08T10:42:09.263Z,13.75
2022-11-08T10:44:43.787Z,13.82
2022-11-08T10:47:23.124Z,13.83
2022-11-08T10:50:00.905Z,13.83
2022-11-08T10:52:39.571Z,13.79
2022-11-08T10:55:24.232Z,13.79
2022-11-08T10:57:56.450Z,13.84
2022-11-08T11:00:35.403Z,13.85
2022-11-08T11:03:29.079Z,13.85
2022-11-08T11:06:06.464Z,13.87
2022-11-08T11:08:52.073Z,13.96
2022-11-08T11:11:28.492Z,14.10
2022-11-08T11:14:21.901Z,14.19
2022-11-08T11:17:07.690Z,14.25
2022-11-08T11:19:44.343Z,14.25
2022-11-08T11:22:17.433Z,14.25
2022-11-08T11:24:54.951Z,14.27
2022-11-08T11:27:33.334Z,14.31
2022-11-08T11:30:25.221Z,14.32
2022-11-08T11:33:07.398Z,14.34
2022-11-08T11:35:47.888Z,14.36
2022-11-08T11:38:31.499Z,14.37
2022-11-08T11:41:11.216Z,14.34
2022-11-08T11:43:49.489Z,14.33
2022-11-08T11:46:29.156Z,14.38
2022-11-08T11:49:05.926Z,14.43
2022-11-08T11:51:38.297Z,14.42
2022-11-08T11:54:12.848Z,14.42
2022-11-08T11:56:53.898Z,14.45
2022-11-08T11:59:47.647Z,14.50
2022-11-08T12:03:06.270Z,14.54
2022-11-08T12:05:48.362Z,14.56
2022-11-08T12:08:32.302Z,14.54
2022-11-08T12:11:21.032Z,14.51
2022-11-08T12:14:08.201Z,14.56
2022-11-08T12:16:52.658Z,14.80
2022-11-08T12:19:41.738Z,15.17
2022-11-08T12:22:40.260Z,15.52
2022-11-08T12:25:21.184Z,15.62
2022-11-08T12:27:58.273Z,15.47
2022-11-08T12:30:48.124Z,15.32
2022-11-08T12:33:41.157Z,15.19
2022-11-08T12:36:24.343Z,15.09
2022-11-08T12:39:06.024Z,14.97
2022-11-08T12:41:53.628Z,14.87
2022-11-08T12:44:55.006Z,14.82
2022-11-08T12:47:36.724Z,14.81
2022-11-08T12:50:25.943Z,14.76
2022-11-08T12:53:24.737Z,14.69
2022-11-08T12:55:59.589Z,14.62
2022-11-08T12:58:37.264Z,14.59
2022-11-08T13:01:13.140Z,14.56
2022-11-08T13:04:20.154Z,14.50
2022-11-08T13:06:59.027Z,14.45
2022-11-08T13:09:41.566Z,14.40
2022-11-08T13:12:29.837Z,14.32
2022-11-08T13:15:04.742Z,14.28
2022-11-08T13:17:37.115Z,14.27
2022-11-08T13:20:43.414Z,14.24
2022-11-08T13:23:17.677Z,14.19
2022-11-08T13:25:50.793Z,14.15
2022-11-08T13:28:54.754Z,14.11
2022-11-08T13:31:49.223Z,14.06
2022-11-08T13:34:36.058Z,13.99
2022-11-08T13:37:34.824Z,13.93
2022-11-08T13:40:28.114Z,13.91
2022-11-08T13:43:23.834Z,13.93
2022-11-08T13:45:56.846Z,13.90
2022-11-08T13:48:42.381Z,13.88
2022-11-08T13:51:29.185Z,13.82
2022-11-08T13:54:03.102Z,13.76
2022-11-08T13:56:46.971Z,13.73
2022-11-08T14:00:00.048Z,13.68
2022-11-08T14:02:48.827Z,13.61
2022-11-08T14:05:48.440Z,13.54
2022-11-08T14:08:42.519Z,13.52
2022-11-08T14:11:45.809Z,13.53
2022-11-08T14:14:52.727Z,13.50
2022-11-08T14:17:34.572Z,13.48
2022-11-08T14:20:28.400Z,13.46
2022-11-08T14:23:03.412Z,13.41
2022-11-08T14:25:39.161Z,13.37
2022-11-08T14:28:26.457Z,13.33
2022-11-08T14:31:00.469Z,13.28
2022-11-08T14:33:34.052Z,13.22
2022-11-08T14:36:09.339Z,13.16
2022-11-08T14:38:50.848Z,13.13
2022-11-08T14:41:29.238Z,13.13
2022-11-08T14:44:03.940Z,13.10
2022-11-08T14:46:35.769Z,13.08
2022-11-08T14:49:20.461Z,13.05
2022-11-08T14:52:07.813Z,13.04
2022-11-08T14:54:43.026Z,12.99
2022-11-08T14:57:36.681Z,12.94
2022-11-08T15:00:19.977Z,12.90
2022-11-08T15:02:55.013Z,12.83
2022-11-08T15:05:38.802Z,12.76
2022-11-08T15:08:23.005Z,12.67
2022-11-08T15:11:01.785Z,12.64
2022-11-08T15:13:40.373Z,12.64
2022-11-08T15:16:13.646Z,12.63
2022-11-08T15:18:46.488Z,12.62
2022-11-08T15:21:30.904Z,12.62
2022-11-08T15:24:15.210Z,12.61
2022-11-08T15:27:07.440Z,12.55
2022-11-08T15:29:54.691Z,12.47
2022-11-08T15:32:27.116Z,12.41
2022-11-08T15:34:59.668Z,12.37
2022-11-08T15:37:37.180Z,12.37
2022-11-08T15:40:20.185Z,12.38
2022-11-08T15:42:53.381Z,12.42
2022-11-08T15:45:29.057Z,12.41
2022-11-08T15:48:13.865Z,12.41
2022-11-08T15:50:46.034Z,12.38
2022-11-08T15:53:18.330Z,12.36
2022-11-08T15:55:53.287Z,12.31
2022-11-08T15:58:29.731Z,12.26
2022-11-08T16:01:03.589Z,12.24
2022-11-08T16:03:36.479Z,12.22
2022-11-08T16:06:10.887Z,12.16
2022-11-08T16:08:43.021Z,12.14
2022-11-08T16:11:21.904Z,12.15
2022-11-08T16:13:55.050Z,12.14
2022-11-08T16:16:30.033Z,12.14
2022-11-08T16:19:06.411Z,12.14
2022-11-08T16:21:38.624Z,12.13
2022-11-08T16:24:11.254Z,12.09
2022-11-08T16:26:45.497Z,12.05
2022-11-08T16:29:23.625Z,11.99
2022-11-08T16:31:55.925Z,11.95
2022-11-08T16:34:28.375Z,11.93
2022-11-08T16:37:00.598Z,11.97
2022-11-08T16:39:32.783Z,11.96
2022-11-08T16:42:05.954Z,11.96
2022-11-08T16:44:39.711Z,11.97
2022-11-08T16:47:19.109Z,11.97
2022-11-08T16:49:51.646Z,11.96
2022-11-08T16:52:23.970Z,11.96
2022-11-08T16:54:56.240Z,11.93
2022-11-08T16:57:34.756Z,11.91
2022-11-08T17:00:10.261Z,11.88
2022-11-08T17:02:45.474Z,11.87
2022-11-08T17:05:23.117Z,11.91
2022-11-08T17:07:56.926Z,11.90
2022-11-08T17:10:31.121Z,11.90
2022-11-08T17:13:03.359Z,11.90
2022-11-08T17:15:35.634Z,11.91
2022-11-08T17:18:08.029Z,11.89
2022-11-08T17:20:40.581Z,11.87
2022-11-08T17:23:13.874Z,11.82
2022-11-08T17:25:46.658Z,11.77
2022-11-08T17:28:19.069Z,11.73
2022-11-08T17:30:51.482Z,11.68
2022-11-08T17:33:23.673Z,11.70
2022-11-08T17:35:55.892Z,11.68
2022-11-08T17:38:28.112Z,11.66
2022-11-08T17:41:06.833Z,11.65
2022-11-08T17:43:39.457Z,11.64
2022-11-08T17:46:12.403Z,11.61
2022-11-08T17:48:44.725Z,11.60
2022-11-08T17:51:17.201Z,11.58
2022-11-08T17:53:49.517Z,11.56
2022-11-08T17:56:21.715Z,11.53
2022-11-08T17:58:53.894Z,11.49
2022-11-08T18:01:26.186Z,11.51
2022-11-08T18:03:58.601Z,11.50
2022-11-08T18:06:30.943Z,11.47
2022-11-08T18:09:03.298Z,11.45
2022-11-08T18:11:35.870Z,11.45
2022-11-08T18:14:08.261Z,11.40
2022-11-08T18:16:40.461Z,11.36
2022-11-08T18:19:12.736Z,11.29
2022-11-08T18:21:45.440Z,11.23
2022-11-08T18:24:18.583Z,11.20
2022-11-08T18:26:51.030Z,11.22
2022-11-08T18:29:23.609Z,11.22
2022-11-08T18:31:56.035Z,11.21
2022-11-08T18:34:28.636Z,11.21
2022-11-08T18:37:00.831Z,11.19
2022-11-08T18:39:33.038Z,11.15
2022-11-08T18:42:05.545Z,11.12
2022-11-08T18:44:38.191Z,11.09
2022-11-08T18:47:10.325Z,11.06
2022-11-08T18:49:42.696Z,11.06
2022-11-08T18:52:15.455Z,11.09
2022-11-08T18:54:48.799Z,11.09
2022-11-08T18:57:21.089Z,11.07
2022-11-08T18:59:57.215Z,11.09
2022-11-08T19:02:32.937Z,11.11
2022-11-08T19:05:05.613Z,11.12
2022-11-08T19:07:37.931Z,11.11
2022-11-08T19:10:12.201Z,11.11
2022-11-08T19:12:44.423Z,11.10
2022-11-08T19:15:16.874Z,11.10
2022-11-08T19:17:53.878Z,11.10
2022-11-08T19:20:26.150Z,11.15
2022-11-08T19:22:58.345Z,11.16
2022-11-08T19:25:30.513Z,11.15
2022-11-08T19:28:02.810Z,11.16
2022-11-08T19:30:34.952Z,11.19
2022-11-08T19:33:07.178Z,11.15
2022-11-08T19:35:41.411Z,11.13
2022-11-08T19:38:13.579Z,11.12
2022-11-08T19:40:47.467Z,11.08
2022-11-08T19:43:21.266Z,11.07
2022-11-08T19:45:57.401Z,11.10
2022-11-08T19:48:31.297Z,11.08
2022-11-08T19:51:06.795Z,11.05
2022-11-08T19:53:41.847Z,11.05
2022-11-08T19:56:18.137Z,11.06
2022-11-08T19:58:51.644Z,11.04
2022-11-08T20:01:28.768Z,11.00
2022-11-08T20:04:03.114Z,10.98
2022-11-08T20:06:37.592Z,10.97
2022-11-08T20:09:12.612Z,10.94
2022-11-08T20:11:47.573Z,10.92
2022-11-08T20:14:21.338Z,10.96
2022-11-08T20:16:54.727Z,10.94
2022-11-08T20:19:27.353Z,10.95
2022-11-08T20:22:00.068Z,10.94
2022-11-08T20:24:32.544Z,10.94
2022-11-08T20:27:04.813Z,10.92
2022-11-08T20:29:37.032Z,10.90
2022-11-08T20:32:09.536Z,10.88
2022-11-08T20:34:41.804Z,10.85
2022-11-08T20:37:14.794Z,10.84
2022-11-08T20:39:47.121Z,10.87
2022-11-08T20:42:20.948Z,10.87
2022-11-08T20:44:53.590Z,10.86
2022-11-08T20:47:25.718Z,10.87
2022-11-08T20:49:58.499Z,10.86
2022-11-08T20:52:30.696Z,10.83
2022-11-08T20:55:02.945Z,10.78
2022-11-08T20:57:35.085Z,10.75
2022-11-08T21:00:13.552Z,10.71
2022-11-08T21:02:46.102Z,10.70
2022-11-08T21:05:18.537Z,10.74
2022-11-08T21:08:57.250Z,10.75
2022-11-08T21:10:47.727Z,10.76
2022-11-08T21:13:20.631Z,10.76
2022-11-08T21:15:53.647Z,10.77
2022-11-08T21:18:26.348Z,10.74
2022-11-08T21:21:06.121Z,10.69
2022-11-08T21:23:40.083Z,10.68
2022-11-08T21:26:13.580Z,10.63
2022-11-08T21:28:46.156Z,10.59
2022-11-08T21:31:18.811Z,10.59
2022-11-08T21:33:51.003Z,10.64
2022-11-08T21:36:26.789Z,10.60
2022-11-08T21:38:59.029Z,10.59
2022-11-08T21:41:31.299Z,10.61
2022-11-08T21:44:03.492Z,10.61
2022-11-08T21:46:35.584Z,10.60
2022-11-08T21:49:10.746Z,10.60
2022-11-08T21:51:42.965Z,10.59
2022-11-08T21:54:15.545Z,10.54
2022-11-08T21:56:47.736Z,10.53
2022-11-08T21:59:19.881Z,10.56
2022-11-08T22:01:52.046Z,10.56
2022-11-08T22:04:24.267Z,10.57
2022-11-08T22:06:56.607Z,10.56
2022-11-08T22:09:28.834Z,10.55
2022-11-08T22:12:01.057Z,10.52
2022-11-08T22:14:33.223Z,10.49
2022-11-08T22:17:05.546Z,10.48
2022-11-08T22:19:37.736Z,10.48
2022-11-08T22:22:10.289Z,10.44
2022-11-08T22:24:42.743Z,10.45
2022-11-08T22:27:14.961Z,10.51
2022-11-08T22:29:47.316Z,10.52
2022-11-08T22:32:19.552Z,10.52
2022-11-08T22:34:51.718Z,10.53
2022-11-08T22:37:23.916Z,10.52
2022-11-08T22:39:56.186Z,10.50
2022-11-08T22:42:28.430Z,10.51
2022-11-08T22:45:00.651Z,10.51
2022-11-08T22:47:32.970Z,10.49
2022-11-08T22:50:05.503Z,10.45
2022-11-08T22:52:37.798Z,10.42
2022-11-08T22:55:11.959Z,10.46
2022-11-08T22:57:44.180Z,10.45
2022-11-08T23:00:18.658Z,10.42
2022-11-08T23:02:51.074Z,10.43
2022-11-08T23:05:23.267Z,10.44
2022-11-08T23:07:56.332Z,10.42
2022-11-08T23:10:28.988Z,10.41
2022-11-08T23:13:30.294Z,10.38
2022-11-08T23:16:20.249Z,10.35
2022-11-08T23:19:06.397Z,10.30
2022-11-08T23:21:56.329Z,10.29
2022-11-08T23:24:28.934Z,10.31
2022-11-08T23:27:19.790Z,10.30
2022-11-08T23:30:10.160Z,10.29
2022-11-08T23:32:46.761Z,10.27
2022-11-08T23:35:20.719Z,10.21
2022-11-08T23:37:53.474Z,10.15
2022-11-08T23:40:43.255Z,10.11
2022-11-08T23:43:34.762Z,10.04
2022-11-08T23:46:12.021Z,10.03
2022-11-08T23:48:43.981Z,10.02
2022-11-08T23:51:15.915Z,10.04
2022-11-08T23:53:48.013Z,10.10
2022-11-08T23:56:24.270Z,10.10
2022-11-08T23:58:58.466Z,10.09
